Time;durP1;ratioP1;P1;durP2;ratioP2;P2;SDS_P1;SDS_P2;PMS_P1;PMS_P2;Temp;Humidity;BMP_temperature;BMP_pressure;BME280_temperature;BME280_humidity;BME280_pressure;Samples;Min_cycle;Max_cycle;Signal;HPM_P1;HPM_P2
2023/09/19 00:01:59;;;;;;;1.25;1.17;;;;;;;15.71;nan;61046.84;5072596;28;20185;-65
2023/09/19 00:04:28;;;;;;;1.98;1.85;;;;;;;15.73;nan;61125.78;5072294;28;20178;-66
2023/09/19 00:06:54;;;;;;;1.42;1.30;;;;;;;15.94;nan;61149.47;5088234;28;20364;-66
2023/09/19 00:09:19;;;;;;;1.23;1.13;;;;;;;15.84;nan;61156.81;5072756;28;20169;-65
2023/09/19 00:11:47;;;;;;;1.60;1.50;;;;;;;15.60;nan;61124.59;5072537;28;20221;-65
2023/09/19 00:14:13;;;;;;;1.92;1.58;;;;;;;15.69;nan;61150.19;5072347;28;20217;-66
2023/09/19 00:16:40;;;;;;;1.50;1.40;;;;;;;15.74;nan;61117.19;5071954;28;20751;-65
2023/09/19 00:19:08;;;;;;;4.35;1.40;;;;;;;15.63;nan;61119.69;5072130;28;20264;-65
2023/09/19 00:21:35;;;;;;;1.30;1.20;;;;;;;15.60;nan;61100.84;5071981;28;20182;-66
2023/09/19 00:24:01;;;;;;;1.50;1.33;;;;;;;15.45;nan;61336.75;5072319;28;20150;-65
2023/09/19 00:26:30;;;;;;;1.98;1.80;;;;;;;15.45;nan;61072.16;5071904;28;20265;-65
2023/09/19 00:28:57;;;;;;;1.52;1.42;;;;;;;15.34;nan;60976.88;5071294;28;20170;-65
2023/09/19 00:31:23;;;;;;;1.10;1.10;;;;;;;15.46;nan;61060.44;5071835;28;20170;-66
2023/09/19 00:33:48;;;;;;;1.52;1.30;;;;;;;15.38;nan;61048.28;5072141;28;20307;-66
2023/09/19 00:36:14;;;;;;;2.20;1.60;;;;;;;15.56;nan;61202.47;5071846;28;20216;-65
2023/09/19 00:38:39;;;;;;;1.48;1.35;;;;;;;15.72;nan;61147.84;5071758;28;20671;-65
2023/09/19 00:41:05;;;;;;;1.55;1.40;;;;;;;15.72;nan;61268.91;5071986;28;20167;-65
2023/09/19 00:43:34;;;;;;;2.15;1.30;;;;;;;15.87;nan;61131.84;5071661;28;20259;-65
2023/09/19 00:46:02;;;;;;;1.63;1.42;;;;;;;12.84;nan;62504.19;5071786;28;20264;-66
2023/09/19 00:48:28;;;;;;;1.73;1.63;;;;;;;15.60;nan;61111.13;5071871;28;20178;-65
2023/09/19 00:50:57;;;;;;;1.50;1.13;;;;;;;15.67;nan;61121.63;5071561;28;20174;-65
2023/09/19 00:53:25;;;;;;;1.88;1.30;;;;;;;15.40;nan;61210.69;5071872;28;20162;-66
2023/09/19 00:55:52;;;;;;;1.73;1.30;;;;;;;15.59;nan;61100.28;5072161;28;20158;-65
2023/09/19 00:58:18;;;;;;;1.42;1.33;;;;;;;15.72;nan;61122.09;5071583;28;20189;-66
2023/09/19 01:00:44;;;;;;;1.48;1.38;;;;;;;15.57;nan;61100.59;5071703;28;20170;-65
2023/09/19 01:03:10;;;;;;;1.55;1.38;;;;;;;15.44;nan;61132.81;5071882;28;20594;-66
2023/09/19 01:05:36;;;;;;;1.50;1.40;;;;;;;15.33;nan;61048.38;5071831;28;20204;-65
2023/09/19 01:08:01;;;;;;;1.40;1.30;;;;;;;14.95;nan;61129.03;5071329;28;20198;-65
2023/09/19 01:10:27;;;;;;;2.15;1.33;;;;;;;14.76;nan;60974.44;5071292;28;20706;-65
2023/09/19 01:13:05;;;;;;;1.23;1.13;;;;;;;14.91;nan;61037.06;5071328;28;20710;-66
2023/09/19 01:15:42;;;;;;;1.33;1.23;;;;;;;14.81;nan;61008.38;5071639;28;20170;-66
2023/09/19 01:18:37;;;;;;;1.75;1.20;;;;;;;14.78;nan;60953.56;5071306;28;20223;-66
2023/09/19 01:21:09;;;;;;;1.48;1.20;;;;;;;14.72;nan;60858.84;5072001;28;20173;-65
2023/09/19 01:24:05;;;;;;;1.40;1.30;;;;;;;14.69;nan;60912.59;5071057;28;20177;-65
2023/09/19 01:27:04;;;;;;;1.08;1.05;;;;;;;14.70;nan;60884.88;5071475;28;20170;-64
2023/09/19 01:29:44;;;;;;;1.55;1.45;;;;;;;14.72;nan;60933.97;5071505;28;20162;-64
2023/09/19 01:32:13;;;;;;;1.45;1.35;;;;;;;14.80;nan;60934.69;5071417;28;20174;-64
2023/09/19 01:34:48;;;;;;;1.40;1.30;;;;;;;14.77;nan;60901.03;5071234;28;20181;-65
2023/09/19 01:37:19;;;;;;;1.60;1.50;;;;;;;14.58;nan;60785.13;5071323;28;20694;-65
2023/09/19 01:39:48;;;;;;;1.40;1.30;;;;;;;14.87;nan;60862.84;5073345;28;20172;-66
2023/09/19 01:42:43;;;;;;;1.98;1.83;;;;;;;14.73;nan;60760.25;5075181;28;20591;-66
2023/09/19 01:45:24;;;;;;;1.65;1.55;;;;;;;14.82;nan;60777.50;5075312;28;20163;-66
2023/09/19 01:47:55;;;;;;;1.45;1.35;;;;;;;14.59;nan;60655.16;5090500;28;20192;-66
2023/09/19 01:50:42;;;;;;;1.65;1.55;;;;;;;14.68;nan;60579.84;5075410;28;20200;-65
2023/09/19 01:53:19;;;;;;;2.10;1.50;;;;;;;14.36;nan;60567.72;5075243;28;20710;-66
2023/09/19 01:55:49;;;;;;;1.65;1.33;;;;;;;14.29;nan;60277.28;5075509;28;20161;-65
2023/09/19 01:58:33;;;;;;;1.35;1.20;;;;;;;14.41;nan;59933.03;5074813;28;20647;-65
2023/09/19 02:01:00;;;;;;;1.98;1.30;;;;;;;14.15;nan;59735.25;5074565;28;20166;-65
2023/09/19 02:03:28;;;;;;;1.25;1.15;;;;;;;14.36;nan;59755.38;5075076;28;20174;-65
2023/09/19 02:05:54;;;;;;;2.97;2.00;;;;;;;14.40;nan;59913.94;5074517;28;20181;-65
2023/09/19 02:08:23;;;;;;;2.97;1.25;;;;;;;14.25;nan;59864.47;5074592;28;20177;-66
2023/09/19 02:10:49;;;;;;;2.03;1.30;;;;;;;14.37;nan;59676.88;5074713;28;20225;-65
2023/09/19 02:13:19;;;;;;;1.48;1.38;;;;;;;14.39;nan;59707.31;5074714;28;20178;-65
2023/09/19 02:15:46;;;;;;;1.67;1.58;;;;;;;14.08;nan;59466.22;5074831;28;20227;-66
2023/09/19 02:18:12;;;;;;;1.73;1.38;;;;;;;14.26;nan;59521.44;5090367;28;20244;-65
2023/09/19 02:20:38;;;;;;;1.58;1.48;;;;;;;14.20;nan;59737.66;5074501;28;20493;-65
2023/09/19 02:23:04;;;;;;;1.77;1.50;;;;;;;14.24;nan;59729.25;5074206;28;20541;-65
2023/09/19 02:25:30;;;;;;;2.15;1.40;;;;;;;14.30;nan;59625.44;5074244;28;20645;-66
2023/09/19 02:27:58;;;;;;;1.30;1.20;;;;;;;14.10;nan;59601.38;5074296;28;20192;-65
2023/09/19 02:30:25;;;;;;;1.42;1.10;;;;;;;13.25;nan;59534.97;5074461;28;20173;-66
2023/09/19 02:32:50;;;;;;;2.05;1.30;;;;;;;14.08;nan;59545.25;5074189;28;20177;-65
2023/09/19 02:35:16;;;;;;;1.50;1.40;;;;;;;14.12;nan;59504.00;5074390;28;20575;-66
2023/09/19 02:37:41;;;;;;;1.38;1.27;;;;;;;13.97;nan;59587.59;5074130;28;20198;-65
2023/09/19 02:40:18;;;;;;;1.20;1.10;;;;;;;14.23;nan;59931.03;5074108;28;20170;-66
2023/09/19 02:42:52;;;;;;;2.08;1.63;;;;;;;14.03;nan;59876.06;5074010;28;20181;-65
2023/09/19 02:45:19;;;;;;;1.30;1.10;;;;;;;14.21;nan;60168.22;5089781;28;20554;-65
2023/09/19 02:47:47;;;;;;;1.50;1.30;;;;;;;13.95;nan;60191.22;5074382;28;20182;-66
2023/09/19 02:50:16;;;;;;;1.30;1.20;;;;;;;13.91;nan;60104.63;5073546;28;20227;-65
2023/09/19 02:52:48;;;;;;;2.83;1.52;;;;;;;14.08;nan;59974.59;5073290;28;20182;-66
2023/09/19 02:55:17;;;;;;;1.65;1.48;;;;;;;13.76;nan;59746.63;5073736;28;20163;-65
2023/09/19 02:58:01;;;;;;;1.27;1.20;;;;;;;13.74;nan;59439.06;5073844;28;20202;-66
2023/09/19 03:00:27;;;;;;;1.17;1.10;;;;;;;13.88;nan;59184.44;5073955;28;20209;-64
2023/09/19 03:02:56;;;;;;;1.35;1.25;;;;;;;13.68;nan;58898.88;5073752;28;20648;-66
2023/09/19 03:05:26;;;;;;;1.52;1.42;;;;;;;13.94;nan;59122.28;5073806;28;20180;-65
2023/09/19 03:07:51;;;;;;;1.50;1.20;;;;;;;13.90;nan;59523.41;5074011;28;20177;-65
2023/09/19 03:10:18;;;;;;;2.22;1.90;;;;;;;13.69;nan;59670.16;5073701;28;20236;-65
2023/09/19 03:12:43;;;;;;;1.40;1.27;;;;;;;13.90;nan;59674.28;5073539;28;20245;-65
2023/09/19 03:15:09;;;;;;;1.33;1.23;;;;;;;13.66;nan;59512.91;5073330;28;20166;-65
2023/09/19 03:17:35;;;;;;;2.60;1.80;;;;;;;13.74;nan;59380.03;5073553;28;20676;-66
2023/09/19 03:20:01;;;;;;;1.77;1.42;;;;;;;13.67;nan;59072.75;5073081;28;20213;-66
2023/09/19 03:22:27;;;;;;;1.17;1.17;;;;;;;13.41;nan;58715.56;5073418;28;20197;-65
2023/09/19 03:24:53;;;;;;;1.88;1.40;;;;;;;13.44;nan;58457.84;5073296;28;20261;-65
2023/09/19 03:27:20;;;;;;;1.83;1.10;;;;;;;13.60;nan;58252.09;5095660;28;20208;-64
2023/09/19 03:29:46;;;;;;;1.70;1.40;;;;;;;13.59;nan;58701.84;5108407;28;20274;-65
2023/09/19 03:32:11;;;;;;;1.40;1.30;;;;;;;13.80;nan;59117.22;5093931;28;20165;-66
2023/09/19 03:34:42;;;;;;;1.25;1.13;;;;;;;13.62;nan;59580.34;5103456;28;20180;-66
2023/09/19 03:37:09;;;;;;;2.33;1.50;;;;;;;13.65;nan;59665.19;5095318;28;20693;-64
2023/09/19 03:39:34;;;;;;;1.63;1.52;;;;;;;13.79;nan;59826.94;5113762;28;20221;-64
2023/09/19 03:42:01;;;;;;;2.20;1.55;;;;;;;13.84;nan;59855.56;5095278;28;20173;-64
2023/09/19 03:44:26;;;;;;;1.75;1.65;;;;;;;13.79;nan;60098.41;5113380;28;20168;-64
2023/09/19 03:46:52;;;;;;;1.52;1.42;;;;;;;13.81;nan;60096.06;5113225;28;20225;-64
2023/09/19 03:49:17;;;;;;;1.33;1.20;;;;;;;13.50;nan;60098.09;5112911;28;20271;-63
2023/09/19 03:51:42;;;;;;;2.00;1.80;;;;;;;13.22;nan;59951.59;5113457;28;20226;-63
2023/09/19 03:54:08;;;;;;;1.50;1.40;;;;;;;13.14;nan;59383.88;5113254;28;20169;-63
2023/09/19 03:56:34;;;;;;;1.45;1.35;;;;;;;12.98;nan;58561.69;5112976;28;20189;-64
2023/09/19 03:58:59;;;;;;;1.52;1.42;;;;;;;12.91;nan;58129.41;5112866;28;20221;-64
2023/09/19 04:01:27;;;;;;;3.22;1.60;;;;;;;12.88;nan;57995.56;5112971;28;20183;-64
2023/09/19 04:03:53;;;;;;;1.70;1.60;;;;;;;13.04;nan;57507.63;5104012;28;20184;-64
2023/09/19 04:06:19;;;;;;;1.63;1.52;;;;;;;12.97;nan;57282.97;5092439;28;20185;-64
2023/09/19 04:08:44;;;;;;;2.75;1.33;;;;;;;12.84;nan;57310.09;5092315;28;20629;-63
2023/09/19 04:11:10;;;;;;;1.35;1.17;;;;;;;12.87;nan;56964.53;5090831;28;20231;-64
2023/09/19 04:13:36;;;;;;;2.05;1.52;;;;;;;12.92;nan;56521.75;5093717;28;20597;-64
2023/09/19 04:16:03;;;;;;;1.63;1.50;;;;;;;12.87;nan;55554.59;5091510;28;20181;-64
2023/09/19 04:18:31;;;;;;;4.70;1.80;;;;;;;12.70;nan;54513.72;5087109;28;20234;-64
2023/09/19 04:20:56;;;;;;;1.42;1.27;;;;;;;12.84;nan;53949.84;5091392;28;20181;-64
2023/09/19 04:23:21;;;;;;;1.73;1.60;;;;;;;13.01;nan;53516.69;5090081;28;20268;-63
2023/09/19 04:25:48;;;;;;;1.30;1.20;;;;;;;13.09;nan;53729.41;5093834;28;20287;-64
2023/09/19 04:28:13;;;;;;;1.60;1.50;;;;;;;13.20;nan;53382.19;5091182;28;20177;-65
2023/09/19 04:30:41;;;;;;;2.90;1.50;;;;;;;13.34;nan;53203.22;5091621;28;20180;-64
2023/09/19 04:33:08;;;;;;;1.92;1.50;;;;;;;13.32;nan;52730.84;5088683;28;20176;-64
2023/09/19 04:35:33;;;;;;;1.50;1.40;;;;;;;13.43;nan;53642.28;5091638;28;20184;-65
2023/09/19 04:38:00;;;;;;;1.92;1.50;;;;;;;13.47;nan;54755.09;5091428;28;20220;-64
2023/09/19 04:40:26;;;;;;;1.70;1.60;;;;;;;13.92;nan;56074.69;5092002;28;20575;-64
2023/09/19 04:42:59;;;;;;;2.60;1.42;;;;;;;13.98;nan;56973.97;5091456;28;20170;-64
2023/09/19 04:45:29;;;;;;;1.40;1.30;;;;;;;13.93;nan;57178.44;5091590;28;20162;-64
2023/09/19 04:47:55;;;;;;;1.58;1.42;;;;;;;14.08;nan;57427.88;5091927;28;20269;-63
2023/09/19 04:50:26;;;;;;;1.25;1.15;;;;;;;14.23;nan;57826.28;5091776;28;20180;-66
2023/09/19 04:52:52;;;;;;;1.65;1.52;;;;;;;14.40;nan;58206.56;5091546;28;20592;-63
2023/09/19 04:55:18;;;;;;;2.17;1.48;;;;;;;14.59;nan;58509.06;5091745;28;20173;-65
2023/09/19 04:57:48;;;;;;;1.73;1.63;;;;;;;14.87;nan;58744.50;5091604;28;20193;-65
2023/09/19 05:00:16;;;;;;;1.58;1.48;;;;;;;12.55;nan;58884.78;5091555;28;20200;-65
2023/09/19 05:02:42;;;;;;;3.58;2.30;;;;;;;13.77;nan;59405.91;5091656;28;20233;-64
2023/09/19 05:05:10;;;;;;;2.58;2.10;;;;;;;15.14;nan;59676.47;5091394;28;20174;-64
2023/09/19 05:07:35;;;;;;;1.40;1.30;;;;;;;15.53;nan;60344.41;5073425;28;20220;-65
2023/09/19 05:10:01;;;;;;;2.17;1.70;;;;;;;15.45;nan;60346.31;5091330;28;20236;-66
2023/09/19 05:12:27;;;;;;;1.50;1.40;;;;;;;15.66;nan;60549.44;5090862;28;20185;-64
2023/09/19 05:14:52;;;;;;;1.70;1.40;;;;;;;15.56;nan;60453.28;5089851;28;20204;-65
2023/09/19 05:17:18;;;;;;;3.40;1.38;;;;;;;15.84;nan;60773.00;5090415;28;20201;-64
2023/09/19 05:19:43;;;;;;;1.27;1.17;;;;;;;15.77;nan;60690.47;5091373;28;20180;-65
2023/09/19 05:22:08;;;;;;;1.60;1.50;;;;;;;16.11;nan;60859.41;5091424;28;20169;-65
2023/09/19 05:24:34;;;;;;;1.73;1.20;;;;;;;15.71;nan;60796.50;5090529;28;20192;-66
2023/09/19 05:27:00;;;;;;;2.22;1.67;;;;;;;16.47;nan;61035.38;5091221;28;20169;-64
2023/09/19 05:29:26;;;;;;;1.25;1.15;;;;;;;16.50;nan;61041.34;5090932;28;20149;-65
2023/09/19 05:31:54;;;;;;;1.95;1.55;;;;;;;16.79;nan;61087.44;5091403;28;20164;-65
2023/09/19 05:34:20;;;;;;;7.82;1.92;;;;;;;17.03;nan;60971.97;5091458;28;20172;-67
2023/09/19 05:36:45;;;;;;;2.25;2.05;;;;;;;16.81;nan;60988.53;5091406;28;20197;-66
2023/09/19 05:39:12;;;;;;;1.42;1.30;;;;;;;17.17;nan;61010.38;5090735;28;20171;-65
2023/09/19 05:41:39;;;;;;;1.70;1.60;;;;;;;17.05;nan;61098.13;5091233;28;20644;-67
2023/09/19 05:44:06;;;;;;;1.50;1.38;;;;;;;17.31;nan;61005.47;5091212;28;20196;-66
2023/09/19 05:46:32;;;;;;;1.42;1.33;;;;;;;17.22;nan;60992.78;5091188;28;20230;-66
2023/09/19 05:48:58;;;;;;;2.08;1.58;;;;;;;17.26;nan;61040.59;5090680;28;20150;-67
2023/09/19 05:51:24;;;;;;;1.63;1.30;;;;;;;17.50;nan;61245.81;5091028;28;20458;-66
2023/09/19 05:53:49;;;;;;;1.95;1.70;;;;;;;17.70;nan;61105.66;5090834;28;20162;-66
2023/09/19 05:56:15;;;;;;;2.13;1.48;;;;;;;17.54;nan;61023.03;5091250;28;20295;-67
2023/09/19 05:58:44;;;;;;;2.25;1.70;;;;;;;15.64;nan;60840.13;5090946;28;20201;-67
2023/09/19 06:01:10;;;;;;;3.78;1.60;;;;;;;17.95;nan;60942.53;5091233;28;20264;-66
2023/09/19 06:03:35;;;;;;;1.63;1.17;;;;;;;18.19;nan;61206.81;5090991;28;20565;-65
2023/09/19 06:06:19;;;;;;;1.88;1.40;;;;;;;18.29;nan;61199.97;5090486;28;20173;-66
2023/09/19 06:08:45;;;;;;;2.95;1.50;;;;;;;18.30;nan;61104.88;5095816;28;20191;-67
2023/09/19 06:11:11;;;;;;;1.40;1.30;;;;;;;18.41;nan;61254.31;5103727;28;20213;-67
2023/09/19 06:13:39;;;;;;;1.95;1.75;;;;;;;18.58;nan;61322.13;5090797;28;20583;-66
2023/09/19 06:16:05;;;;;;;1.95;1.25;;;;;;;18.98;nan;61261.16;5103682;28;20184;-66
2023/09/19 06:18:36;;;;;;;1.90;1.33;;;;;;;19.16;nan;61325.47;5110718;28;20165;-66
2023/09/19 06:21:05;;;;;;;1.38;1.17;;;;;;;19.17;nan;61308.47;5110906;28;20255;-66
2023/09/19 06:23:31;;;;;;;1.50;1.38;;;;;;;19.21;nan;61419.19;5110839;28;20604;-66
2023/09/19 06:25:57;;;;;;;1.98;1.52;;;;;;;19.48;nan;61301.44;5112028;28;20259;-66
2023/09/19 06:28:25;;;;;;;1.30;1.20;;;;;;;19.36;nan;61394.69;5115065;28;20216;-64
2023/09/19 06:30:52;;;;;;;2.00;1.50;;;;;;;19.65;nan;61356.38;5115092;28;20172;-66
2023/09/19 06:33:18;;;;;;;1.65;1.30;;;;;;;19.60;nan;61480.88;5115243;28;20571;-65
2023/09/19 06:35:46;;;;;;;1.08;1.00;;;;;;;19.81;nan;61657.59;5114806;28;20580;-65
2023/09/19 06:38:13;;;;;;;1.40;1.30;;;;;;;19.80;nan;61417.94;5103787;28;20282;-64
2023/09/19 06:40:38;;;;;;;2.03;1.55;;;;;;;19.88;nan;61431.59;5092823;28;20200;-65
2023/09/19 06:43:05;;;;;;;1.20;1.10;;;;;;;20.07;nan;61370.06;5093320;28;20181;-65
2023/09/19 06:45:31;;;;;;;1.33;1.08;;;;;;;20.16;nan;61572.19;5104729;28;20306;-65
2023/09/19 06:47:57;;;;;;;1.10;1.00;;;;;;;20.24;nan;61474.31;5100902;28;20192;-65
2023/09/19 06:50:24;;;;;;;0.90;0.90;;;;;;;20.32;nan;61495.78;5093663;28;20181;-66
2023/09/19 06:52:51;;;;;;;1.20;1.10;;;;;;;20.45;nan;61609.09;5101006;28;20230;-65
2023/09/19 06:55:19;;;;;;;1.77;1.20;;;;;;;20.63;nan;61569.78;5092503;28;20185;-64
2023/09/19 06:57:44;;;;;;;1.33;1.10;;;;;;;20.52;nan;61581.28;5093391;28;20205;-65
2023/09/19 07:00:22;;;;;;;1.30;1.20;;;;;;;20.60;nan;61566.41;5092966;28;20185;-65
2023/09/19 07:03:00;;;;;;;2.53;1.02;;;;;;;20.67;nan;61672.97;5089213;28;20770;-65
2023/09/19 07:05:37;;;;;;;1.60;1.20;;;;;;;20.48;nan;61726.72;5080484;28;20570;-65
2023/09/19 07:08:03;;;;;;;1.15;1.08;;;;;;;20.84;nan;61593.56;5093457;28;20206;-65
2023/09/19 07:10:30;;;;;;;3.72;1.88;;;;;;;20.74;nan;61592.63;5094948;28;20700;-66
2023/09/19 07:13:08;;;;;;;1.48;1.23;;;;;;;20.88;nan;61592.34;5109433;28;20601;-65
2023/09/19 07:15:41;;;;;;;1.95;1.30;;;;;;;20.97;nan;61748.00;5095778;28;20287;-65
2023/09/19 07:18:10;;;;;;;2.58;1.65;;;;;;;20.73;nan;61501.19;5104517;28;20217;-65
2023/09/19 07:20:36;;;;;;;1.75;0.88;;;;;;;21.49;nan;61687.44;5093043;28;20545;-65
2023/09/19 07:23:01;;;;;;;1.45;1.13;;;;;;;21.18;nan;61686.09;5092537;28;20177;-66
2023/09/19 07:25:30;;;;;;;1.88;1.27;;;;;;;21.26;nan;61658.22;5091547;28;20640;-66
2023/09/19 07:27:59;;;;;;;1.90;1.27;;;;;;;21.29;nan;61723.97;5091782;28;20196;-65
2023/09/19 07:30:26;;;;;;;1.90;1.08;;;;;;;21.47;nan;61721.00;5108873;28;20271;-66
2023/09/19 07:32:51;;;;;;;2.03;1.60;;;;;;;;;;5096282;28;20696;-66
2023/09/19 07:35:19;;;;;;;1.27;1.10;;;;;;;21.52;nan;61700.66;5096057;28;20178;-66
2023/09/19 07:37:49;;;;;;;1.50;1.40;;;;;;;21.88;nan;61904.81;5113274;28;20207;-66
2023/09/19 07:40:15;;;;;;;1.52;1.15;;;;;;;22.13;nan;61989.94;5113682;28;20149;-66
2023/09/19 07:42:41;;;;;;;1.50;0.98;;;;;;;21.51;nan;61832.13;5113473;28;20248;-67
2023/09/19 07:45:13;;;;;;;1.30;1.20;;;;;;;21.31;nan;61734.06;5113453;28;20255;-67
2023/09/19 07:47:39;;;;;;;1.90;1.52;;;;;;;21.87;nan;61922.44;5114030;28;20169;-67
2023/09/19 07:50:07;;;;;;;2.65;1.50;;;;;;;22.18;nan;61972.22;5113891;28;20168;-66
2023/09/19 07:52:33;;;;;;;2.63;1.48;;;;;;;21.91;nan;61851.00;5113678;28;20219;-66
2023/09/19 07:55:01;;;;;;;1.80;1.15;;;;;;;22.05;nan;61955.41;5113468;28;20255;-67
2023/09/19 07:57:26;;;;;;;2.08;1.45;;;;;;;22.01;nan;61951.41;5113314;28;20697;-66
2023/09/19 07:59:53;;;;;;;1.60;1.25;;;;;;;22.43;nan;61948.56;5113491;28;20252;-66
2023/09/19 08:02:18;;;;;;;1.80;1.50;;;;;;;22.00;nan;61919.06;5113294;28;20696;-66
2023/09/19 08:04:46;;;;;;;1.20;1.10;;;;;;;22.28;nan;61910.69;5113227;28;20169;-67
2023/09/19 08:07:12;;;;;;;1.58;1.25;;;;;;;22.48;nan;62050.63;5113204;28;20522;-67
2023/09/19 08:09:38;;;;;;;1.75;1.30;;;;;;;22.62;nan;62032.69;5113589;28;20628;-66
2023/09/19 08:12:04;;;;;;;2.47;1.65;;;;;;;22.73;nan;62016.59;5112681;28;20227;-67
2023/09/19 08:14:30;;;;;;;1.50;1.17;;;;;;;23.10;nan;62099.28;5112871;28;20172;-65
2023/09/19 08:16:58;;;;;;;1.85;1.42;;;;;;;23.36;nan;62087.16;5113330;28;20204;-66
2023/09/19 08:19:28;;;;;;;2.28;1.70;;;;;;;23.23;nan;62074.97;5113519;28;20623;-66
2023/09/19 08:21:55;;;;;;;2.33;1.50;;;;;;;23.92;nan;62212.47;5113183;28;20230;-66
2023/09/19 08:24:21;;;;;;;1.52;1.15;;;;;;;24.32;nan;62124.94;5113241;28;20167;-66
2023/09/19 08:26:46;;;;;;;1.70;1.30;;;;;;;24.30;nan;62150.81;5112978;28;20181;-66
2023/09/19 08:29:12;;;;;;;1.27;1.17;;;;;;;24.39;nan;62159.00;5096668;28;20177;-66
2023/09/19 08:31:38;;;;;;;1.33;1.23;;;;;;;24.50;nan;62182.00;5110426;28;20187;-66
2023/09/19 08:34:03;;;;;;;1.15;1.05;;;;;;;24.22;nan;62238.31;5092617;28;20169;-66
2023/09/19 08:36:30;;;;;;;2.17;0.95;;;;;;;23.99;nan;62165.66;5097843;28;20231;-65
2023/09/19 08:38:56;;;;;;;1.25;1.15;;;;;;;23.82;nan;62122.78;5112748;28;20177;-66
2023/09/19 08:41:21;;;;;;;1.10;1.00;;;;;;;23.74;nan;62265.59;5112727;28;20175;-66
2023/09/19 08:43:47;;;;;;;1.70;1.10;;;;;;;23.98;nan;62170.31;5112463;28;20207;-66
2023/09/19 08:46:16;;;;;;;1.98;1.30;;;;;;;24.17;nan;62196.63;5112577;28;20644;-66
2023/09/19 08:48:54;;;;;;;1.60;1.20;;;;;;;24.18;nan;62184.72;5112380;28;20165;-66
2023/09/19 08:51:45;;;;;;;2.60;1.45;;;;;;;24.05;nan;62190.75;5112867;28;20539;-66
2023/09/19 08:54:19;;;;;;;2.33;1.85;;;;;;;23.73;nan;62241.53;5100740;28;20185;-66
2023/09/19 08:56:47;;;;;;;2.13;1.50;;;;;;;23.99;nan;62147.38;5112646;28;20852;-66
2023/09/19 08:59:14;;;;;;;1.17;1.08;;;;;;;24.17;nan;62223.31;5112962;28;20162;-66
2023/09/19 09:01:41;;;;;;;1.92;1.27;;;;;;;24.28;nan;62156.91;5093847;28;20706;-65
2023/09/19 09:04:09;;;;;;;2.05;1.40;;;;;;;23.99;nan;62048.16;5108222;28;20184;-66
2023/09/19 09:06:35;;;;;;;2.00;1.40;;;;;;;24.04;nan;62153.06;5091746;28;20188;-66
2023/09/19 09:09:03;;;;;;;1.73;1.63;;;;;;;23.88;nan;62061.75;5102076;28;20173;-66
2023/09/19 09:11:28;;;;;;;1.88;1.23;;;;;;;24.30;nan;62210.88;5112162;28;20711;-66
2023/09/19 09:13:54;;;;;;;1.48;1.30;;;;;;;24.37;nan;62216.81;5112479;28;20165;-66
2023/09/19 09:16:19;;;;;;;1.67;1.50;;;;;;;24.52;nan;62222.91;5113118;28;20169;-66
2023/09/19 09:18:46;;;;;;;3.60;1.65;;;;;;;24.47;nan;62219.81;5112428;28;20665;-65
2023/09/19 09:21:13;;;;;;;1.45;1.17;;;;;;;24.31;nan;62071.53;5110836;28;20207;-67
2023/09/19 09:23:39;;;;;;;1.60;1.38;;;;;;;24.09;nan;62150.94;5090982;28;20199;-66
2023/09/19 09:26:06;;;;;;;1.48;1.23;;;;;;;23.86;nan;62099.19;5091403;28;20165;-66
2023/09/19 09:28:33;;;;;;;1.30;1.13;;;;;;;23.88;nan;62098.28;5091303;28;20169;-65
2023/09/19 09:30:59;;;;;;;1.88;1.30;;;;;;;24.27;nan;62200.19;5091180;28;20169;-66
2023/09/19 09:33:24;;;;;;;1.48;1.38;;;;;;;21.21;nan;63773.69;5090792;28;20185;-67
2023/09/19 09:35:56;;;;;;;1.92;1.30;;;;;;;24.83;nan;62453.78;5090577;28;20302;-66
2023/09/19 09:38:29;;;;;;;1.08;1.00;;;;;;;24.97;nan;62446.28;5091117;28;20667;-66
2023/09/19 09:41:06;;;;;;;2.63;1.60;;;;;;;25.21;nan;62463.25;5090907;28;20416;-66
2023/09/19 09:43:38;;;;;;;1.33;1.08;;;;;;;25.68;nan;62351.53;5089948;28;20570;-67
2023/09/19 09:49:18;;;;;;;1.40;1.15;;;;;;;25.55;nan;62370.72;5070846;28;20190;-66
2023/09/19 09:51:59;;;;;;;2.20;1.40;;;;;;;25.61;nan;62405.81;5103558;28;20188;-67
2023/09/19 09:54:36;;;;;;;1.30;1.13;;;;;;;25.45;nan;62301.72;5110984;28;20157;-67
2023/09/19 09:57:17;;;;;;;1.30;1.20;;;;;;;25.58;nan;62371.53;5111581;28;20188;-67
2023/09/19 09:59:53;;;;;;;1.55;1.30;;;;;;;25.06;nan;62448.72;5111436;28;20157;-65
2023/09/19 10:02:36;;;;;;;2.08;1.42;;;;;;;24.83;nan;62383.72;5114365;28;20627;-65
2023/09/19 10:05:20;;;;;;;1.10;1.00;;;;;;;24.77;nan;62297.91;5115323;28;20169;-66
2023/09/19 10:07:50;;;;;;;6.28;1.70;;;;;;;24.96;nan;62403.28;5115338;28;20702;-65
2023/09/19 10:10:37;;;;;;;1.23;1.10;;;;;;;24.98;nan;62504.94;5115587;28;20282;-65
2023/09/19 10:13:03;;;;;;;1.45;1.30;;;;;;;25.41;nan;62300.34;5115051;28;20169;-65
2023/09/19 10:15:32;;;;;;;1.77;1.30;;;;;;;25.59;nan;62359.00;5114922;28;20272;-65
2023/09/19 10:18:01;;;;;;;2.03;1.20;;;;;;;25.69;nan;62381.47;5115170;28;20199;-66
2023/09/19 10:20:35;;;;;;;1.85;1.20;;;;;;;24.60;nan;62352.81;5115053;28;20192;-65
2023/09/19 10:23:03;;;;;;;1.30;1.20;;;;;;;25.41;nan;62462.56;5096459;28;20225;-66
2023/09/19 10:25:30;;;;;;;2.10;1.38;;;;;;;26.22;nan;62368.09;5114190;28;20176;-66
2023/09/19 10:27:58;;;;;;;2.10;1.50;;;;;;;26.02;nan;62358.38;5114530;28;20176;-65
2023/09/19 10:30:25;;;;;;;1.58;1.17;;;;;;;25.91;nan;62505.56;5114762;28;20233;-65
2023/09/19 10:33:02;;;;;;;1.88;1.27;;;;;;;26.20;nan;62352.13;5114650;28;20168;-65
2023/09/19 10:35:28;;;;;;;1.25;1.15;;;;;;;26.58;nan;62476.81;5114820;28;20195;-65
2023/09/19 10:38:00;;;;;;;1.33;1.23;;;;;;;26.77;nan;62498.53;5114518;28;20204;-65
2023/09/19 10:40:30;;;;;;;1.25;1.00;;;;;;;26.86;nan;62497.78;5114748;28;20173;-64
2023/09/19 10:43:05;;;;;;;1.95;1.63;;;;;;;26.90;nan;62541.69;5114288;28;20589;-65
2023/09/19 10:45:33;;;;;;;2.15;1.25;;;;;;;27.33;nan;62495.28;5114198;28;20689;-65
2023/09/19 10:48:03;;;;;;;1.40;1.30;;;;;;;26.93;nan;62673.66;5114089;28;20164;-66
2023/09/19 10:50:36;;;;;;;1.65;1.30;;;;;;;26.84;nan;62477.09;5114339;28;20176;-65
2023/09/19 10:53:06;;;;;;;1.52;1.20;;;;;;;26.82;nan;62640.06;5108022;28;20225;-66
2023/09/19 10:55:35;;;;;;;1.63;1.30;;;;;;;26.43;nan;62466.97;5094064;28;20165;-66
2023/09/19 10:58:02;;;;;;;1.48;1.33;;;;;;;26.67;nan;62476.03;5093821;28;20307;-66
2023/09/19 11:00:34;;;;;;;2.03;1.30;;;;;;;26.45;nan;62475.03;5093903;28;20177;-66
2023/09/19 11:03:11;;;;;;;2.38;1.40;;;;;;;26.73;nan;62546.41;5093973;28;20245;-66
2023/09/19 11:05:41;;;;;;;2.00;1.58;;;;;;;26.21;nan;62403.09;5093147;28;20191;-66
2023/09/19 11:08:12;;;;;;;2.35;1.52;;;;;;;26.33;nan;62640.13;5096227;28;20229;-66
2023/09/19 11:10:51;;;;;;;1.50;1.33;;;;;;;26.65;nan;62520.94;5107930;28;20229;-66
2023/09/19 11:13:34;;;;;;;1.35;1.08;;;;;;;26.73;nan;62732.03;5093384;28;20165;-67
2023/09/19 11:16:00;;;;;;;1.35;1.25;;;;;;;26.99;nan;62601.28;5096729;28;20558;-66
2023/09/19 11:18:41;;;;;;;1.58;1.20;;;;;;;27.18;nan;62638.78;5093033;28;20288;-67
2023/09/19 11:21:32;;;;;;;2.13;1.70;;;;;;;27.42;nan;62679.38;5111695;28;20198;-66
2023/09/19 11:24:25;;;;;;;2.05;1.30;;;;;;;27.60;nan;62694.22;5093263;28;20184;-66
2023/09/19 11:26:52;;;;;;;1.67;1.42;;;;;;;27.70;nan;62649.94;5105471;28;20673;-66
2023/09/19 11:29:31;;;;;;;1.30;1.00;;;;;;;28.03;nan;62651.53;5095587;28;20544;-66
2023/09/19 11:31:59;;;;;;;1.75;1.50;;;;;;;28.11;nan;62754.75;5113765;28;20202;-66
2023/09/19 11:34:41;;;;;;;1.40;1.20;;;;;;;28.18;nan;62762.78;5111577;28;20172;-67
2023/09/19 11:37:11;;;;;;;1.17;1.08;;;;;;;27.88;nan;62667.94;5093255;28;20208;-66
2023/09/19 11:39:38;;;;;;;2.95;1.10;;;;;;;27.84;nan;62881.97;5092897;28;20241;-67
2023/09/19 11:42:41;;;;;;;1.30;1.15;;;;;;;28.03;nan;62761.91;5093001;28;20226;-67
2023/09/19 11:45:06;;;;;;;1.25;1.13;;;;;;;28.16;nan;62718.44;5092871;28;20251;-67
2023/09/19 11:47:34;;;;;;;2.38;1.30;;;;;;;28.29;nan;62933.16;5093074;28;20161;-67
2023/09/19 11:50:01;;;;;;;1.35;1.10;;;;;;;28.21;nan;62684.16;5093085;28;20164;-66
2023/09/19 11:52:34;;;;;;;1.08;1.02;;;;;;;28.48;nan;62878.16;5093044;28;20169;-66
2023/09/19 11:55:01;;;;;;;1.98;1.45;;;;;;;28.67;nan;62807.31;5092782;28;20165;-65
2023/09/19 11:57:29;;;;;;;1.73;1.38;;;;;;;28.55;nan;62804.63;5092308;28;20181;-66
2023/09/19 11:59:55;;;;;;;1.42;1.20;;;;;;;28.41;nan;62772.81;5092825;28;20547;-66
2023/09/19 12:02:42;;;;;;;1.73;1.45;;;;;;;28.48;nan;62799.81;5092665;28;20194;-65
2023/09/19 12:05:08;;;;;;;1.63;1.10;;;;;;;28.45;nan;62745.84;5093136;28;20179;-65